Terminal Aerodrome Forecast
Issued by NWS

Home | Current Version | Previous Version | Text Only | Print | Product List | Glossary On
Versions: 1 2 3 4 5 6 7 8 9 10 11 12 13 14
000
FTAK31 PAJN 300700 AAA
TAFAKT
TAF AMD
PAKT 300703Z 3007/3106 28002KT 2SM BR BKN004 BKN060
     FM301200 31006KT 1SM BR BKN004 BKN120
     FM301700 32004KT 3SM BR SCT005 BKN120
     FM302000 32008KT P6SM BKN120
      AMD LTD TO CLD VIS AND WIND 3006/3015=

USA.gov is the U.S. government's official web portal to all federal, state and local government web resources and services.